• Join FlightAware (Why Join?)
  • Login
  • US Flag 
01:24PM EDT


 

Airport Tracker/Info


-or-


 

Live Flight TrackerFlight Track Log ✈ N1926Y ✈ 29-Sep-2013 ✈ KIAG - KCDW

Flight Track Log - Related Links

Times and Time Zones

All times are in EDT time to prevent confusion due to time zone crossing. See the N1926Y flight status page for this flight to view local times or setup timezone preferences in your user account.

Time Position Orientation Groundspeed Altitude Reporting Facility
EDT Latitude Longitude Course Direction KTS MPH feet Rate Location/Type
08:15AM 43.0667 -78.8833 122° Southeast 102 117 2,800  Level Buffalo TRACON
08:16AM 43.0500 -78.8500 124° Southeast 113 130 3,200 420 Climbing Buffalo TRACON
08:17AM 43.0333 -78.8167 124° Southeast 114 131 3,700 480 Climbing Buffalo TRACON
08:18AM 43.0167 -78.7667 114° Southeast 116 133 4,200 480 Climbing Buffalo TRACON
08:19AM 43.0000 -78.7333 124° Southeast 117 135 4,700 480 Climbing Buffalo TRACON
08:20AM 42.9833 -78.7000 124° Southeast 119 137 5,200 480 Climbing Buffalo TRACON
08:21AM 42.9884 -78.6847 122° Southeast  Level FlightAware Approximate
08:21AM 42.9667 -78.6500 114° Southeast 117 135 5,700  Level Buffalo TRACON
08:22AM 42.9500 -78.6333 144° Southeast 113 130 6,200 420 Climbing Buffalo TRACON
08:23AM 42.9167 -78.5833 132° Southeast 116 133 6,600 180 Climbing Buffalo TRACON
08:24AM 42.9000 -78.5500 124° Southeast 134 154 6,600  Level Buffalo TRACON
08:25AM 42.8833 -78.5000 114° Southeast 145 167 6,600  Level Buffalo TRACON
08:26AM 42.8667 -78.4667 124° Southeast 144 166 6,600  Level Buffalo TRACON
08:27AM 42.8500 -78.4167 114° Southeast 145 167 6,600  Level Buffalo TRACON
08:28AM 42.8167 -78.3667 132° Southeast 144 166 6,600  Level Buffalo TRACON
08:30AM 42.7981 -78.3183 118° Southeast 140 161 6,600  Level Cleveland Center
08:30AM 42.7928 -78.3031 115° Southeast 144 166 6,600  Level Cleveland Center
08:31AM 42.7756 -78.2689 124° Southeast 143 165 6,600  Level Cleveland Center
08:31AM 42.7714 -78.2567 115° Southeast 140 161 6,600 -120 Level Cleveland Center
08:32AM 42.7547 -78.2228 124° Southeast 143 165 6,500 -240 Descending Cleveland Center
08:32AM 42.7503 -78.2078 112° Southeast 143 165 6,400 -240 Descending Cleveland Center
08:33AM 42.7344 -78.1739 122° Southeast 150 173 6,300 -240 Descending Cleveland Center
08:33AM 42.7283 -78.1597 120° Southeast 155 178 6,200 60 Descending Cleveland Center
08:34AM 42.7119 -78.1247 122° Southeast 154 177 6,400 240 Climbing Cleveland Center
08:34AM 42.7058 -78.1103 120° Southeast 145 167 6,500 480 Climbing Cleveland Center
08:35AM 42.6928 -78.0819 122° Southeast 125 144 6,900 480 Climbing Cleveland Center
08:35AM 42.6908 -78.0761 114° Southeast 129 148 7,000 540 Climbing Cleveland Center
08:36AM 42.6767 -78.0461 123° Southeast 106 122 7,500 540 Climbing Cleveland Center
08:36AM 42.6725 -78.0350 117° Southeast 107 123 7,600  Climbing Cleveland Center
08:37AM 42.6608 -78.0100 122° Southeast 116 133 7,500 -120 Descending Cleveland Center
08:37AM 42.6542 -77.9953 122° Southeast 121 139 7,500 60 Level Cleveland Center
08:38AM 42.6394 -77.9669 125° Southeast 139 160 7,600 60 Climbing Cleveland Center
08:38AM 42.6344 -77.9503 112° Southeast 136 157 7,600 -120 Level Cleveland Center
08:39AM 42.6206 -77.9217 123° Southeast 138 159 7,500  Descending Cleveland Center
08:39AM 42.6147 -77.9058 117° Southeast 138 159 7,600  Climbing Cleveland Center
08:40AM 42.6017 -77.8764 121° Southeast 138 159 7,500  Descending Cleveland Center
08:40AM 42.5950 -77.8622 123° Southeast 138 159 7,600  Climbing Cleveland Center
08:41AM 42.5803 -77.8333 125° Southeast 136 157 7,500 -120 Descending Cleveland Center
08:41AM 42.5753 -77.8189 115° Southeast 137 158 7,500  Level Cleveland Center
08:42AM 42.5594 -77.7875 124° Southeast 136 157 7,500  Level Cleveland Center
08:42AM 42.5517 -77.7692 120° Southeast 138 159 7,500  Level Cleveland Center
08:43AM 42.5383 -77.7417 123° Southeast 141 162 7,500  Level Cleveland Center
08:43AM 42.5319 -77.7239 116° Southeast 140 161 7,500  Level Cleveland Center
08:44AM 42.5117 -77.6797 122° Southeast 140 161 7,500  Level Cleveland Center
08:45AM 42.4911 -77.6353 122° Southeast 140 161 7,500  Level Cleveland Center
08:46AM 42.4717 -77.5919 121° Southeast 136 157 7,500  Level Cleveland Center
08:47AM 42.4517 -77.5469 121° Southeast 139 160 7,500  Level Cleveland Center
08:48AM 42.4303 -77.5019 123° Southeast 142 163 7,500  Level Cleveland Center
08:49AM 42.4103 -77.4569 121° Southeast 141 162 7,600 60 Climbing Cleveland Center
08:50AM 42.3858 -77.4031 122° Southeast 141 162 7,700  Climbing Cleveland Center
08:51AM 42.3656 -77.3606 123° Southeast 137 158 7,600 -60 Descending Cleveland Center
08:52AM 42.3453 -77.3161 122° Southeast 138 159 7,600  Level Cleveland Center
08:53AM 42.3250 -77.2728 122° Southeast 138 159 7,600  Level Cleveland Center
08:54AM 42.3058 -77.2308 122° Southeast 134 154 7,600  Level Cleveland Center
08:55AM 42.2858 -77.1872 122° Southeast 135 155 7,600  Level Cleveland Center
08:56AM 42.2656 -77.1436 122° Southeast 136 157 7,600  Level Cleveland Center
08:57AM 42.2458 -77.1006 122° Southeast 137 158 7,600  Level Cleveland Center
08:58AM 42.2211 -77.0486 123° Southeast 137 158 7,600 -120 Level Cleveland Center
09:00AM 42.2004 -77.0034 122° Southeast  Level FlightAware Approximate
09:07AM 42.0641 -76.7074 122° Southeast  Level FlightAware Approximate
09:08AM 42.0446 -76.6653 122° Southeast  Level FlightAware Approximate
09:09AM 42.0251 -76.6231 122° Southeast  Level FlightAware Approximate
09:10AM 42.0055 -76.5810 122° Southeast  Level FlightAware Approximate
09:11AM 41.9859 -76.5389 122° Southeast  Level FlightAware Approximate
09:12AM 41.9659 -76.4971 123° Southeast  Level FlightAware Approximate
09:13AM 41.9458 -76.4555 123° Southeast  Level FlightAware Approximate
09:14AM 41.9257 -76.4139 123° Southeast  Level FlightAware Approximate
09:15AM 41.9056 -76.3723 123° Southeast  Level FlightAware Approximate
09:16AM 41.8854 -76.3307 123° Southeast  Level FlightAware Approximate
09:17AM 41.8653 -76.2892 123° Southeast  Level FlightAware Approximate
09:18AM 41.8451 -76.2477 123° Southeast  Level FlightAware Approximate
09:19AM 41.8250 -76.2062 123° Southeast  Level FlightAware Approximate
09:20AM 41.8048 -76.1648 123° Southeast  Level FlightAware Approximate
09:21AM 41.7846 -76.1234 123° Southeast  Level FlightAware Approximate
09:22AM 41.7643 -76.0819 123° Southeast  Level FlightAware Approximate
09:23AM 41.7441 -76.0406 123° Southeast  Level FlightAware Approximate
09:24AM 41.7239 -75.9992 123° Southeast  Level FlightAware Approximate
09:25AM 41.7036 -75.9579 123° Southeast  Level FlightAware Approximate
09:26AM 41.6833 -75.9166 120° Southeast  Level FlightAware Approximate
09:27AM 41.6647 -75.8739 120° Southeast  Level FlightAware Approximate
09:28AM 41.6461 -75.8313 120° Southeast  Level FlightAware Approximate
09:29AM 41.6275 -75.7887 120° Southeast  Level FlightAware Approximate
09:30AM 41.6088 -75.7460 120° Southeast  Level FlightAware Approximate
09:31AM 41.5901 -75.7035 120° Southeast  Level FlightAware Approximate
09:32AM 41.5715 -75.6609 120° Southeast  Level FlightAware Approximate
09:33AM 41.5513 -75.6196 124° Southeast  Level FlightAware Approximate
09:34AM 41.5307 -75.5787 124° Southeast  Level FlightAware Approximate
09:35AM 41.5100 -75.5379 124° Southeast  Level FlightAware Approximate
09:36AM 41.4894 -75.4970 124° Southeast  Level FlightAware Approximate
09:37AM 41.4687 -75.4562 124° Southeast  Level FlightAware Approximate
09:38AM 41.4480 -75.4155 124° Southeast  Level FlightAware Approximate
09:39AM 41.4273 -75.3747 124° Southeast  Level FlightAware Approximate
09:40AM 41.4065 -75.3340 124° Southeast  Level FlightAware Approximate
09:41AM 41.3858 -75.2933 124° Southeast  Level FlightAware Approximate
09:42AM 41.3650 -75.2526 124° Southeast  Level FlightAware Approximate
09:43AM 41.3443 -75.2120 124° Southeast  Level FlightAware Approximate
09:44AM 41.3235 -75.1714 124° Southeast  Level FlightAware Approximate
09:45AM 41.3027 -75.1308 124° Southeast  Level FlightAware Approximate
09:46AM 41.2819 -75.0902 124° Southeast  Level FlightAware Approximate
09:47AM 41.2610 -75.0497 124° Southeast  Level FlightAware Approximate
09:48AM 41.2386 -75.0087 126° Southeast  Level FlightAware Approximate
09:49AM 41.2162 -74.9677 126° Southeast  Level FlightAware Approximate
09:49AM 41.1500 -74.8333 121° Southeast 149 171 4,400  Level New York TRACON
09:50AM 41.1938 -74.9268 126° Southeast  Level FlightAware Approximate
09:51AM 41.1713 -74.8858 126° Southeast  Level FlightAware Approximate
09:51AM 41.1245 -74.7799 122° Southeast  Level FlightAware Approximate
09:52AM 41.1489 -74.8449 126° Southeast  Level FlightAware Approximate
09:53AM 41.1272 -74.8033 121° Southeast  Level FlightAware Approximate
09:54AM 41.1075 -74.7600 121° Southeast  Level FlightAware Approximate
09:55AM 41.0877 -74.7167 121° Southeast  Level FlightAware Approximate
09:58AM 40.9813 -74.4815 122° Southeast  Level FlightAware Approximate
09:59AM 40.9608 -74.4389 123° Southeast  Level FlightAware Approximate
10:00AM 40.9385 -74.3979 123° Southeast  Level Estimated
10:01AM 40.9163 -74.3570 128° Southeast  Level Estimated
10:02AM 40.8939 -74.3162 126° Southeast  Level FlightAware Approximate